sensor_id;sensor_type;location;lat;lon;timestamp;pressure;altitude;pressure_sealevel;temperature;humidity
61474;BME280;53694;49.784;30.150;2022-09-06T00:00:00;100424.93;;;10.15;66.25
61474;BME280;53694;49.784;30.150;2022-09-06T00:01:11;100417.62;;;10.19;64.95
61474;BME280;53694;49.784;30.150;2022-09-06T00:02:13;100424.13;;;10.14;64.67
61474;BME280;53694;49.784;30.150;2022-09-06T00:03:15;100424.92;;;10.03;65.26
61474;BME280;53694;49.784;30.150;2022-09-06T00:04:17;100421.64;;;9.88;65.53
61474;BME280;53694;49.784;30.150;2022-09-06T00:05:19;100417.92;;;9.72;66.10
61474;BME280;53694;49.784;30.150;2022-09-06T00:06:21;100419.66;;;9.56;66.01
61474;BME280;53694;49.784;30.150;2022-09-06T00:07:22;100420.28;;;9.40;65.56
61474;BME280;53694;49.784;30.150;2022-09-06T00:08:24;100419.27;;;9.24;66.36
61474;BME280;53694;49.784;30.150;2022-09-06T00:09:26;100416.44;;;9.12;67.03
61474;BME280;53694;49.784;30.150;2022-09-06T00:10:29;100417.04;;;8.96;67.07
61474;BME280;53694;49.784;30.150;2022-09-06T00:11:31;100419.34;;;8.86;67.27
61474;BME280;53694;49.784;30.150;2022-09-06T00:12:33;100420.37;;;8.72;67.39
61474;BME280;53694;49.784;30.150;2022-09-06T00:13:35;100422.66;;;8.62;67.70
61474;BME280;53694;49.784;30.150;2022-09-06T00:14:37;100421.25;;;8.56;68.39
61474;BME280;53694;49.784;30.150;2022-09-06T00:15:39;100426.42;;;8.48;68.49
61474;BME280;53694;49.784;30.150;2022-09-06T00:16:40;100424.52;;;8.40;68.42
61474;BME280;53694;49.784;30.150;2022-09-06T00:17:42;100428.05;;;8.32;68.58
61474;BME280;53694;49.784;30.150;2022-09-06T00:18:44;100422.61;;;8.23;68.80
61474;BME280;53694;49.784;30.150;2022-09-06T00:19:46;100430.53;;;8.16;68.77
61474;BME280;53694;49.784;30.150;2022-09-06T00:20:48;100422.34;;;8.08;68.99
61474;BME280;53694;49.784;30.150;2022-09-06T00:21:49;100423.00;;;7.96;69.22
61474;BME280;53694;49.784;30.150;2022-09-06T00:22:54;100423.48;;;7.89;69.61
61474;BME280;53694;49.784;30.150;2022-09-06T00:23:55;100417.22;;;7.80;69.97
61474;BME280;53694;49.784;30.150;2022-09-06T00:24:56;100423.99;;;7.74;70.31
61474;BME280;53694;49.784;30.150;2022-09-06T00:26:02;100419.80;;;7.68;70.68
61474;BME280;53694;49.784;30.150;2022-09-06T00:27:06;100415.30;;;7.63;70.91
61474;BME280;53694;49.784;30.150;2022-09-06T00:28:08;100418.70;;;7.69;71.13
61474;BME280;53694;49.784;30.150;2022-09-06T00:29:10;100423.64;;;7.93;70.84
61474;BME280;53694;49.784;30.150;2022-09-06T00:30:12;100426.45;;;8.31;70.19
61474;BME280;53694;49.784;30.150;2022-09-06T00:31:19;100426.15;;;8.80;69.52
61474;BME280;53694;49.784;30.150;2022-09-06T00:32:21;100421.15;;;9.32;68.23
61474;BME280;53694;49.784;30.150;2022-09-06T00:33:23;100423.72;;;9.91;66.52
61474;BME280;53694;49.784;30.150;2022-09-06T00:34:25;100422.50;;;10.34;65.02
61474;BME280;53694;49.784;30.150;2022-09-06T00:35:27;100423.22;;;10.56;63.83
61474;BME280;53694;49.784;30.150;2022-09-06T00:36:29;100419.45;;;10.60;63.25
61474;BME280;53694;49.784;30.150;2022-09-06T00:37:31;100418.41;;;10.53;62.92
61474;BME280;53694;49.784;30.150;2022-09-06T00:38:33;100424.58;;;10.37;63.06
61474;BME280;53694;49.784;30.150;2022-09-06T00:39:34;100417.62;;;10.19;63.29
61474;BME280;53694;49.784;30.150;2022-09-06T00:40:36;100423.98;;;9.98;63.70
61474;BME280;53694;49.784;30.150;2022-09-06T00:41:38;100423.67;;;9.79;64.26
61474;BME280;53694;49.784;30.150;2022-09-06T00:42:40;100429.52;;;9.57;64.39
61474;BME280;53694;49.784;30.150;2022-09-06T00:43:42;100425.17;;;9.35;64.76
61474;BME280;53694;49.784;30.150;2022-09-06T00:44:44;100432.23;;;9.15;65.25
61474;BME280;53694;49.784;30.150;2022-09-06T00:45:45;100443.30;;;8.97;66.15
61474;BME280;53694;49.784;30.150;2022-09-06T00:46:49;100438.70;;;8.81;66.45
61474;BME280;53694;49.784;30.150;2022-09-06T00:47:52;100432.51;;;8.63;66.90
61474;BME280;53694;49.784;30.150;2022-09-06T00:48:57;100434.17;;;8.46;67.29
61474;BME280;53694;49.784;30.150;2022-09-06T00:50:00;100433.06;;;8.30;67.86
61474;BME280;53694;49.784;30.150;2022-09-06T00:51:05;100464.96;;;8.17;68.36
61474;BME280;53694;49.784;30.150;2022-09-06T00:52:10;100440.03;;;8.01;69.17
61474;BME280;53694;49.784;30.150;2022-09-06T00:53:13;100429.28;;;7.88;69.17
61474;BME280;53694;49.784;30.150;2022-09-06T00:54:15;100438.13;;;7.76;69.54
61474;BME280;53694;49.784;30.150;2022-09-06T00:55:17;100439.91;;;7.63;69.93
61474;BME280;53694;49.784;30.150;2022-09-06T00:56:20;100435.57;;;7.54;70.37
61474;BME280;53694;49.784;30.150;2022-09-06T00:57:22;100430.43;;;7.43;70.79
61474;BME280;53694;49.784;30.150;2022-09-06T00:58:25;100438.77;;;7.38;71.38
61474;BME280;53694;49.784;30.150;2022-09-06T00:59:30;100436.70;;;7.44;71.74
61474;BME280;53694;49.784;30.150;2022-09-06T01:00:32;100438.47;;;7.66;71.14
61474;BME280;53694;49.784;30.150;2022-09-06T01:01:34;100435.53;;;8.06;70.31
61474;BME280;53694;49.784;30.150;2022-09-06T01:02:36;100441.25;;;8.47;69.08
61474;BME280;53694;49.784;30.150;2022-09-06T01:03:37;100439.27;;;8.95;68.11
61474;BME280;53694;49.784;30.150;2022-09-06T01:04:41;100433.33;;;9.43;66.65
61474;BME280;53694;49.784;30.150;2022-09-06T01:07:46;100427.66;;;10.03;64.85
61474;BME280;53694;49.784;30.150;2022-09-06T01:10:31;100428.36;;;9.79;64.15
61474;BME280;53694;49.784;30.150;2022-09-06T01:19:37;100437.95;;;8.07;69.01
61474;BME280;53694;49.784;30.150;2022-09-06T01:20:56;100430.25;;;7.83;69.62
61474;BME280;53694;49.784;30.150;2022-09-06T01:28:58;100442.20;;;8.51;69.29
61474;BME280;53694;49.784;30.150;2022-09-06T01:31:24;100435.73;;;9.66;65.49
61474;BME280;53694;49.784;30.150;2022-09-06T01:33:47;100442.09;;;10.12;62.60
61474;BME280;53694;49.784;30.150;2022-09-06T01:34:51;100445.72;;;10.04;62.92
61474;BME280;53694;49.784;30.150;2022-09-06T01:35:59;100433.98;;;9.82;62.79
61474;BME280;53694;49.784;30.150;2022-09-06T01:37:02;100443.23;;;9.57;62.93
61474;BME280;53694;49.784;30.150;2022-09-06T01:38:05;100439.73;;;9.26;63.35
61474;BME280;53694;49.784;30.150;2022-09-06T01:39:10;100446.69;;;8.94;63.90
61474;BME280;53694;49.784;30.150;2022-09-06T01:40:12;100440.84;;;8.66;64.76
61474;BME280;53694;49.784;30.150;2022-09-06T01:41:13;100446.75;;;8.39;65.68
61474;BME280;53694;49.784;30.150;2022-09-06T01:42:18;100439.05;;;8.15;66.46
61474;BME280;53694;49.784;30.150;2022-09-06T01:43:25;100437.02;;;7.94;67.36
61474;BME280;53694;49.784;30.150;2022-09-06T01:44:27;100439.27;;;7.75;67.97
61474;BME280;53694;49.784;30.150;2022-09-06T01:46:54;100448.44;;;7.44;69.32
61474;BME280;53694;49.784;30.150;2022-09-06T01:49:41;100448.07;;;7.20;70.10
61474;BME280;53694;49.784;30.150;2022-09-06T01:50:46;100448.20;;;7.06;70.54
61474;BME280;53694;49.784;30.150;2022-09-06T01:55:05;100447.61;;;7.26;70.62
61474;BME280;53694;49.784;30.150;2022-09-06T01:59:09;100451.22;;;9.20;65.53
61474;BME280;53694;49.784;30.150;2022-09-06T02:00:11;100449.09;;;9.67;63.90
61474;BME280;53694;49.784;30.150;2022-09-06T02:04:27;100450.58;;;9.44;62.75
61474;BME280;53694;49.784;30.150;2022-09-06T02:05:36;100452.77;;;9.00;63.47
61474;BME280;53694;49.784;30.150;2022-09-06T02:06:43;100461.80;;;8.71;64.32
61474;BME280;53694;49.784;30.150;2022-09-06T02:07:47;100456.26;;;8.41;65.04
61474;BME280;53694;49.784;30.150;2022-09-06T02:08:54;100460.93;;;8.15;65.82
61474;BME280;53694;49.784;30.150;2022-09-06T02:09:59;100458.39;;;7.92;66.81
61474;BME280;53694;49.784;30.150;2022-09-06T02:11:03;100459.04;;;7.72;67.32
61474;BME280;53694;49.784;30.150;2022-09-06T02:12:07;100451.17;;;7.53;67.87
61474;BME280;53694;49.784;30.150;2022-09-06T02:13:12;100462.39;;;7.34;68.44
61474;BME280;53694;49.784;30.150;2022-09-06T02:14:18;100457.06;;;7.20;68.99
61474;BME280;53694;49.784;30.150;2022-09-06T02:15:26;100452.36;;;7.04;69.69
61474;BME280;53694;49.784;30.150;2022-09-06T02:16:28;100457.63;;;6.91;70.25
61474;BME280;53694;49.784;30.150;2022-09-06T02:17:32;100463.69;;;6.80;70.74
61474;BME280;53694;49.784;30.150;2022-09-06T02:20:01;100463.65;;;6.71;71.50
61474;BME280;53694;49.784;30.150;2022-09-06T02:21:05;100466.15;;;6.90;71.30
61474;BME280;53694;49.784;30.150;2022-09-06T02:22:11;100459.02;;;7.37;70.37
61474;BME280;53694;49.784;30.150;2022-09-06T02:23:14;100461.94;;;7.84;69.61
61474;BME280;53694;49.784;30.150;2022-09-06T02:24:20;100462.38;;;8.38;68.38
61474;BME280;53694;49.784;30.150;2022-09-06T02:25:25;100465.56;;;8.87;66.64
61474;BME280;53694;49.784;30.150;2022-09-06T02:26:29;100451.02;;;9.25;65.51
61474;BME280;53694;49.784;30.150;2022-09-06T02:27:32;100450.58;;;9.44;64.66
61474;BME280;53694;49.784;30.150;2022-09-06T02:28:34;100460.41;;;9.45;64.05
61474;BME280;53694;49.784;30.150;2022-09-06T02:29:36;100450.16;;;9.33;64.05
61474;BME280;53694;49.784;30.150;2022-09-06T02:30:41;100459.14;;;9.13;63.41
61474;BME280;53694;49.784;30.150;2022-09-06T02:32:05;100465.10;;;8.85;63.76
61474;BME280;53694;49.784;30.150;2022-09-06T02:33:09;100465.86;;;8.56;64.66
61474;BME280;53694;49.784;30.150;2022-09-06T02:34:13;100464.32;;;8.20;65.52
61474;BME280;53694;49.784;30.150;2022-09-06T02:35:16;100458.89;;;7.94;66.09
61474;BME280;53694;49.784;30.150;2022-09-06T02:36:18;100459.70;;;7.69;66.74
61474;BME280;53694;49.784;30.150;2022-09-06T02:37:20;100457.10;;;7.46;67.41
61474;BME280;53694;49.784;30.150;2022-09-06T02:38:25;100450.64;;;7.25;68.06
61474;BME280;53694;49.784;30.150;2022-09-06T02:39:27;100455.60;;;7.06;69.25
61474;BME280;53694;49.784;30.150;2022-09-06T02:40:29;100454.42;;;6.89;69.52
61474;BME280;53694;49.784;30.150;2022-09-06T02:41:31;100460.16;;;6.79;70.38
61474;BME280;53694;49.784;30.150;2022-09-06T02:42:33;100464.30;;;6.68;70.73
61474;BME280;53694;49.784;30.150;2022-09-06T02:43:34;100452.22;;;6.60;71.02
61474;BME280;53694;49.784;30.150;2022-09-06T02:44:36;100461.20;;;6.61;71.21
61474;BME280;53694;49.784;30.150;2022-09-06T02:45:38;100457.42;;;6.79;70.98
61474;BME280;53694;49.784;30.150;2022-09-06T02:46:40;100464.11;;;7.13;70.48
61474;BME280;53694;49.784;30.150;2022-09-06T02:47:41;100456.30;;;7.55;69.81
61474;BME280;53694;49.784;30.150;2022-09-06T02:48:43;100456.45;;;8.01;68.33
61474;BME280;53694;49.784;30.150;2022-09-06T02:49:44;100459.95;;;8.45;66.72
61474;BME280;53694;49.784;30.150;2022-09-06T02:50:46;100460.47;;;8.77;65.41
61474;BME280;53694;49.784;30.150;2022-09-06T02:51:48;100466.39;;;8.88;64.66
61474;BME280;53694;49.784;30.150;2022-09-06T02:53:11;100463.81;;;8.83;64.44
61474;BME280;53694;49.784;30.150;2022-09-06T02:54:09;100466.31;;;8.67;64.46
61474;BME280;53694;49.784;30.150;2022-09-06T02:55:11;100463.64;;;8.41;65.09
61474;BME280;53694;49.784;30.150;2022-09-06T02:56:13;100469.45;;;8.22;65.63
61474;BME280;53694;49.784;30.150;2022-09-06T02:57:15;100463.39;;;7.99;66.10
61474;BME280;53694;49.784;30.150;2022-09-06T02:58:16;100458.88;;;7.77;66.55
61474;BME280;53694;49.784;30.150;2022-09-06T02:59:18;100459.84;;;7.55;67.16
61474;BME280;53694;49.784;30.150;2022-09-06T03:00:20;100464.02;;;7.35;68.21
61474;BME280;53694;49.784;30.150;2022-09-06T03:01:22;100458.02;;;7.16;68.57
61474;BME280;53694;49.784;30.150;2022-09-06T03:02:24;100465.05;;;6.99;69.05
61474;BME280;53694;49.784;30.150;2022-09-06T03:03:25;100464.36;;;6.85;69.54
61474;BME280;53694;49.784;30.150;2022-09-06T03:04:27;100469.76;;;6.68;70.19
61474;BME280;53694;49.784;30.150;2022-09-06T03:05:29;100465.83;;;6.51;70.83
61474;BME280;53694;49.784;30.150;2022-09-06T03:06:31;100461.27;;;6.38;71.45
61474;BME280;53694;49.784;30.150;2022-09-06T03:07:33;100464.61;;;6.35;71.91
61474;BME280;53694;49.784;30.150;2022-09-06T03:08:34;100469.97;;;6.49;71.96
61474;BME280;53694;49.784;30.150;2022-09-06T03:09:36;100467.24;;;6.80;71.99
61474;BME280;53694;49.784;30.150;2022-09-06T03:10:38;100472.03;;;7.23;71.05
61474;BME280;53694;49.784;30.150;2022-09-06T03:11:39;100467.08;;;7.68;69.99
61474;BME280;53694;49.784;30.150;2022-09-06T03:12:43;100468.03;;;8.16;68.35
61474;BME280;53694;49.784;30.150;2022-09-06T03:13:45;100473.42;;;8.59;66.81
61474;BME280;53694;49.784;30.150;2022-09-06T03:14:47;100470.39;;;8.90;65.80
61474;BME280;53694;49.784;30.150;2022-09-06T03:15:54;100473.70;;;9.05;65.20
61474;BME280;53694;49.784;30.150;2022-09-06T03:16:56;100472.44;;;9.02;64.76
61474;BME280;53694;49.784;30.150;2022-09-06T03:17:58;100477.20;;;8.84;64.78
61474;BME280;53694;49.784;30.150;2022-09-06T03:18:59;100475.02;;;8.60;65.22
61474;BME280;53694;49.784;30.150;2022-09-06T03:20:02;100469.59;;;8.34;65.56
61474;BME280;53694;49.784;30.150;2022-09-06T03:21:04;100475.42;;;8.07;66.29
61474;BME280;53694;49.784;30.150;2022-09-06T03:22:06;100475.44;;;7.81;67.12
61474;BME280;53694;49.784;30.150;2022-09-06T03:23:07;100473.84;;;7.54;67.88
61474;BME280;53694;49.784;30.150;2022-09-06T03:24:09;100474.61;;;7.28;68.62
61474;BME280;53694;49.784;30.150;2022-09-06T03:25:10;100467.63;;;7.05;69.39
61474;BME280;53694;49.784;30.150;2022-09-06T03:26:13;100480.75;;;6.85;70.24
61474;BME280;53694;49.784;30.150;2022-09-06T03:27:14;100476.64;;;6.65;70.89
61474;BME280;53694;49.784;30.150;2022-09-06T03:28:17;100478.67;;;6.51;71.64
61474;BME280;53694;49.784;30.150;2022-09-06T03:29:19;100472.70;;;6.49;72.08
61474;BME280;53694;49.784;30.150;2022-09-06T03:30:20;100478.09;;;6.63;72.03
61474;BME280;53694;49.784;30.150;2022-09-06T03:31:22;100483.80;;;6.92;71.63
61474;BME280;53694;49.784;30.150;2022-09-06T03:32:24;100486.17;;;7.34;71.11
61474;BME280;53694;49.784;30.150;2022-09-06T03:33:25;100477.87;;;7.82;69.99
61474;BME280;53694;49.784;30.150;2022-09-06T03:34:27;100490.53;;;8.30;68.33
61474;BME280;53694;49.784;30.150;2022-09-06T03:35:29;100484.77;;;8.79;67.46
61474;BME280;53694;49.784;30.150;2022-09-06T03:36:31;100487.19;;;9.18;65.91
61474;BME280;53694;49.784;30.150;2022-09-06T03:37:32;100490.42;;;9.41;65.04
61474;BME280;53694;49.784;30.150;2022-09-06T03:38:34;100494.45;;;9.44;64.10
61474;BME280;53694;49.784;30.150;2022-09-06T03:39:36;100487.87;;;9.36;64.20
61474;BME280;53694;49.784;30.150;2022-09-06T03:40:37;100492.81;;;9.22;64.16
61474;BME280;53694;49.784;30.150;2022-09-06T03:41:39;100491.95;;;9.00;63.96
61474;BME280;53694;49.784;30.150;2022-09-06T03:42:41;100491.73;;;8.76;64.56
61474;BME280;53694;49.784;30.150;2022-09-06T03:43:42;100492.28;;;8.52;64.95
61474;BME280;53694;49.784;30.150;2022-09-06T03:44:44;100490.71;;;8.25;65.43
61474;BME280;53694;49.784;30.150;2022-09-06T03:45:48;100481.70;;;7.98;66.27
61474;BME280;53694;49.784;30.150;2022-09-06T03:46:50;100485.42;;;7.76;66.89
61474;BME280;53694;49.784;30.150;2022-09-06T03:47:51;100493.44;;;7.56;67.75
61474;BME280;53694;49.784;30.150;2022-09-06T03:48:53;100489.58;;;7.39;68.86
61474;BME280;53694;49.784;30.150;2022-09-06T03:49:54;100493.73;;;7.28;69.74
61474;BME280;53694;49.784;30.150;2022-09-06T03:50:58;100500.12;;;7.15;69.95
61474;BME280;53694;49.784;30.150;2022-09-06T03:51:59;100492.70;;;7.07;70.93
61474;BME280;53694;49.784;30.150;2022-09-06T03:53:01;100492.35;;;6.99;71.30
61474;BME280;53694;49.784;30.150;2022-09-06T03:54:03;100497.64;;;6.96;71.46
61474;BME280;53694;49.784;30.150;2022-09-06T03:55:05;100491.73;;;7.03;71.20
61474;BME280;53694;49.784;30.150;2022-09-06T03:56:07;100491.15;;;7.23;70.62
61474;BME280;53694;49.784;30.150;2022-09-06T03:57:09;100490.08;;;7.59;70.14
61474;BME280;53694;49.784;30.150;2022-09-06T03:58:10;100492.97;;;8.06;69.66
61474;BME280;53694;49.784;30.150;2022-09-06T03:59:12;100492.77;;;8.54;68.05
61474;BME280;53694;49.784;30.150;2022-09-06T04:00:15;100502.23;;;9.04;66.60
61474;BME280;53694;49.784;30.150;2022-09-06T04:01:17;100497.05;;;9.40;65.08
61474;BME280;53694;49.784;30.150;2022-09-06T04:02:19;100496.93;;;9.58;64.33
61474;BME280;53694;49.784;30.150;2022-09-06T04:03:20;100502.41;;;9.58;64.25
61474;BME280;53694;49.784;30.150;2022-09-06T04:04:22;100500.88;;;9.48;64.08
61474;BME280;53694;49.784;30.150;2022-09-06T04:05:24;100506.47;;;9.31;64.39
61474;BME280;53694;49.784;30.150;2022-09-06T04:06:27;100510.10;;;9.14;65.10
61474;BME280;53694;49.784;30.150;2022-09-06T04:07:29;100504.21;;;8.94;65.33
61474;BME280;53694;49.784;30.150;2022-09-06T04:08:31;100508.16;;;8.76;65.86
61474;BME280;53694;49.784;30.150;2022-09-06T04:09:33;100505.78;;;8.57;66.32
61474;BME280;53694;49.784;30.150;2022-09-06T04:10:34;100508.91;;;8.38;66.91
61474;BME280;53694;49.784;30.150;2022-09-06T04:11:36;100510.04;;;8.20;67.59
61474;BME280;53694;49.784;30.150;2022-09-06T04:12:38;100503.75;;;8.02;68.21
61474;BME280;53694;49.784;30.150;2022-09-06T04:13:39;100506.98;;;7.87;69.04
61474;BME280;53694;49.784;30.150;2022-09-06T04:14:41;100511.48;;;7.74;69.65
61474;BME280;53694;49.784;30.150;2022-09-06T04:15:46;100504.38;;;7.64;70.20
61474;BME280;53694;49.784;30.150;2022-09-06T04:16:48;100501.64;;;7.56;70.44
61474;BME280;53694;49.784;30.150;2022-09-06T04:17:50;100498.59;;;7.48;70.97
61474;BME280;53694;49.784;30.150;2022-09-06T04:18:51;100499.56;;;7.53;71.46
61474;BME280;53694;49.784;30.150;2022-09-06T04:19:53;100509.86;;;7.73;71.15
61474;BME280;53694;49.784;30.150;2022-09-06T04:20:55;100500.88;;;8.07;70.39
61474;BME280;53694;49.784;30.150;2022-09-06T04:21:57;100507.91;;;8.51;69.68
61474;BME280;53694;49.784;30.150;2022-09-06T04:22:58;100506.77;;;8.99;68.24
61474;BME280;53694;49.784;30.150;2022-09-06T04:24:00;100508.76;;;9.49;66.96
61474;BME280;53694;49.784;30.150;2022-09-06T04:25:03;100511.04;;;9.89;65.99
61474;BME280;53694;49.784;30.150;2022-09-06T04:26:05;100512.31;;;10.13;64.91
61474;BME280;53694;49.784;30.150;2022-09-06T04:27:06;100513.38;;;10.20;64.28
61474;BME280;53694;49.784;30.150;2022-09-06T04:28:08;100517.59;;;10.18;62.93
61474;BME280;53694;49.784;30.150;2022-09-06T04:29:09;100522.88;;;10.02;63.73
61474;BME280;53694;49.784;30.150;2022-09-06T04:30:12;100518.47;;;9.89;64.19
61474;BME280;53694;49.784;30.150;2022-09-06T04:31:13;100516.00;;;9.75;64.37
61474;BME280;53694;49.784;30.150;2022-09-06T04:32:15;100516.47;;;9.56;64.98
61474;BME280;53694;49.784;30.150;2022-09-06T04:33:17;100521.58;;;9.37;65.58
61474;BME280;53694;49.784;30.150;2022-09-06T04:34:18;100521.52;;;9.16;66.02
61474;BME280;53694;49.784;30.150;2022-09-06T04:35:20;100523.69;;;9.01;66.79
61474;BME280;53694;49.784;30.150;2022-09-06T04:36:22;100525.52;;;8.89;67.04
61474;BME280;53694;49.784;30.150;2022-09-06T04:37:23;100523.00;;;8.75;67.13
61474;BME280;53694;49.784;30.150;2022-09-06T04:38:27;100529.14;;;8.63;67.47
61474;BME280;53694;49.784;30.150;2022-09-06T04:39:29;100517.72;;;8.53;67.88
61474;BME280;53694;49.784;30.150;2022-09-06T04:40:31;100514.20;;;8.43;68.39
61474;BME280;53694;49.784;30.150;2022-09-06T04:41:33;100514.98;;;8.35;68.84
61474;BME280;53694;49.784;30.150;2022-09-06T04:42:35;100512.77;;;8.29;69.65
61474;BME280;53694;49.784;30.150;2022-09-06T04:43:36;100509.86;;;8.25;69.96
61474;BME280;53694;49.784;30.150;2022-09-06T04:44:38;100516.44;;;8.24;70.00
61474;BME280;53694;49.784;30.150;2022-09-06T04:45:40;100513.70;;;8.24;70.03
61474;BME280;53694;49.784;30.150;2022-09-06T04:46:42;100524.34;;;8.25;69.99
61474;BME280;53694;49.784;30.150;2022-09-06T04:47:44;100518.54;;;8.27;69.54
61474;BME280;53694;49.784;30.150;2022-09-06T04:48:51;100524.53;;;8.38;69.40
61474;BME280;53694;49.784;30.150;2022-09-06T04:49:50;100520.61;;;8.56;68.85
61474;BME280;53694;49.784;30.150;2022-09-06T04:50:51;100515.09;;;8.73;68.24
61474;BME280;53694;49.784;30.150;2022-09-06T04:51:53;100520.53;;;8.82;67.96
61474;BME280;53694;49.784;30.150;2022-09-06T04:52:55;100524.23;;;8.86;67.79
61474;BME280;53694;49.784;30.150;2022-09-06T04:53:56;100516.34;;;8.85;66.94
61474;BME280;53694;49.784;30.150;2022-09-06T04:54:58;100522.01;;;8.80;66.99
61474;BME280;53694;49.784;30.150;2022-09-06T04:55:59;100519.12;;;8.76;67.27
61474;BME280;53694;49.784;30.150;2022-09-06T04:57:02;100523.64;;;8.72;67.34
61474;BME280;53694;49.784;30.150;2022-09-06T04:58:04;100522.69;;;8.68;67.36
61474;BME280;53694;49.784;30.150;2022-09-06T04:59:06;100522.69;;;8.68;67.75
61474;BME280;53694;49.784;30.150;2022-09-06T05:00:08;100530.56;;;8.69;67.74
61474;BME280;53694;49.784;30.150;2022-09-06T05:01:10;100528.63;;;8.70;67.90
61474;BME280;53694;49.784;30.150;2022-09-06T05:02:12;100524.44;;;8.72;68.01
61474;BME280;53694;49.784;30.150;2022-09-06T05:03:14;100531.21;;;8.75;67.62
61474;BME280;53694;49.784;30.150;2022-09-06T05:04:16;100532.81;;;8.76;67.36
61474;BME280;53694;49.784;30.150;2022-09-06T05:05:17;100535.70;;;8.80;67.51
61474;BME280;53694;49.784;30.150;2022-09-06T05:06:22;100536.66;;;8.84;67.30
61474;BME280;53694;49.784;30.150;2022-09-06T05:07:24;100535.19;;;8.86;67.50
61474;BME280;53694;49.784;30.150;2022-09-06T05:08:26;100530.66;;;8.90;67.31
61474;BME280;53694;49.784;30.150;2022-09-06T05:09:28;100526.78;;;8.91;67.38
61474;BME280;53694;49.784;30.150;2022-09-06T05:10:29;100528.41;;;8.92;67.38
61474;BME280;53694;49.784;30.150;2022-09-06T05:11:31;100530.81;;;8.94;67.22
61474;BME280;53694;49.784;30.150;2022-09-06T05:12:33;100526.78;;;8.91;67.13
61474;BME280;53694;49.784;30.150;2022-09-06T05:13:34;100533.40;;;8.90;67.30
61474;BME280;53694;49.784;30.150;2022-09-06T05:14:36;100525.98;;;8.91;67.39
61474;BME280;53694;49.784;30.150;2022-09-06T05:15:38;100525.52;;;8.89;67.04
61474;BME280;53694;49.784;30.150;2022-09-06T05:16:39;100527.45;;;8.88;67.62
61474;BME280;53694;49.784;30.150;2022-09-06T05:17:41;100527.45;;;8.88;67.43
61474;BME280;53694;49.784;30.150;2022-09-06T05:18:43;100532.94;;;8.88;67.58
61474;BME280;53694;49.784;30.150;2022-09-06T05:19:44;100535.67;;;8.88;67.46
61474;BME280;53694;49.784;30.150;2022-09-06T05:20:53;100526.31;;;8.89;67.22
61474;BME280;53694;49.784;30.150;2022-09-06T05:21:55;100531.30;;;8.87;66.94
61474;BME280;53694;49.784;30.150;2022-09-06T05:22:56;100528.91;;;8.86;67.09
61474;BME280;53694;49.784;30.150;2022-09-06T05:23:58;100532.78;;;8.85;67.26
61474;BME280;53694;49.784;30.150;2022-09-06T05:25:00;100534.05;;;8.87;67.09
61474;BME280;53694;49.784;30.150;2022-09-06T05:26:02;100535.34;;;8.90;66.88
61474;BME280;53694;49.784;30.150;2022-09-06T05:27:03;100538.23;;;8.93;66.75
61474;BME280;53694;49.784;30.150;2022-09-06T05:28:05;100538.37;;;8.97;66.48
61474;BME280;53694;49.784;30.150;2022-09-06T05:29:07;100536.90;;;8.99;66.67
61474;BME280;53694;49.784;30.150;2022-09-06T05:30:09;100536.25;;;9.03;66.79
61474;BME280;53694;49.784;30.150;2022-09-06T05:31:21;100535.11;;;9.04;66.75
61474;BME280;53694;49.784;30.150;2022-09-06T05:32:15;100537.20;;;9.07;66.73
61474;BME280;53694;49.784;30.150;2022-09-06T05:33:21;100537.81;;;9.12;66.48
61474;BME280;53694;49.784;30.150;2022-09-06T05:34:23;100532.97;;;9.18;66.72
61474;BME280;53694;49.784;30.150;2022-09-06T05:35:24;100534.38;;;9.24;66.47
61474;BME280;53694;49.784;30.150;2022-09-06T05:36:27;100533.88;;;9.31;66.47
61474;BME280;53694;49.784;30.150;2022-09-06T05:37:29;100531.73;;;9.36;65.96
61474;BME280;53694;49.784;30.150;2022-09-06T05:38:31;100531.09;;;9.39;65.62
61474;BME280;53694;49.784;30.150;2022-09-06T05:39:33;100528.34;;;9.39;65.70
61474;BME280;53694;49.784;30.150;2022-09-06T05:40:35;100529.29;;;9.43;65.90
61474;BME280;53694;49.784;30.150;2022-09-06T05:41:36;100520.06;;;9.48;65.65
61474;BME280;53694;49.784;30.150;2022-09-06T05:42:38;100528.89;;;9.54;65.37
61474;BME280;53694;49.784;30.150;2022-09-06T05:43:40;100530.64;;;9.58;65.18
61474;BME280;53694;49.784;30.150;2022-09-06T05:44:41;100527.69;;;9.63;65.32
61474;BME280;53694;49.784;30.150;2022-09-06T05:45:43;100532.98;;;9.68;64.82
61474;BME280;53694;49.784;30.150;2022-09-06T05:46:45;100532.66;;;9.70;64.70
61474;BME280;53694;49.784;30.150;2022-09-06T05:47:47;100542.98;;;9.73;64.60
61474;BME280;53694;49.784;30.150;2022-09-06T05:48:58;100536.80;;;9.76;64.60
61474;BME280;53694;49.784;30.150;2022-09-06T05:49:56;100532.95;;;9.77;64.62
61474;BME280;53694;49.784;30.150;2022-09-06T05:51:03;100525.52;;;9.78;64.74
61474;BME280;53694;49.784;30.150;2022-09-06T05:52:05;100526.77;;;9.80;64.89
61474;BME280;53694;49.784;30.150;2022-09-06T05:53:06;100517.88;;;9.83;65.13
61474;BME280;53694;49.784;30.150;2022-09-06T05:54:11;100520.77;;;9.87;65.12
61474;BME280;53694;49.784;30.150;2022-09-06T05:55:12;100527.19;;;9.91;65.15
61474;BME280;53694;49.784;30.150;2022-09-06T05:56:16;100531.67;;;9.95;64.29
61474;BME280;53694;49.784;30.150;2022-09-06T05:57:18;100532.60;;;9.99;64.29
61474;BME280;53694;49.784;30.150;2022-09-06T05:58:19;100531.59;;;10.04;64.46
61474;BME280;53694;49.784;30.150;2022-09-06T05:59:21;100526.25;;;10.08;63.96
61474;BME280;53694;49.784;30.150;2022-09-06T06:00:23;100533.68;;;10.07;63.40
61474;BME280;53694;49.784;30.150;2022-09-06T06:01:27;100531.59;;;10.04;63.16
61474;BME280;53694;49.784;30.150;2022-09-06T06:02:29;100527.12;;;9.99;63.32